sensor_id;sensor_type;location;lat;lon;timestamp;temperature;humidity
3067;DHT22;1544;48.834;9.194;2023-10-13T00:00:56;19.50;38.50
3067;DHT22;1544;48.834;9.194;2023-10-13T00:03:33;19.50;38.50
3067;DHT22;1544;48.834;9.194;2023-10-13T00:06:09;19.50;38.60
3067;DHT22;1544;48.834;9.194;2023-10-13T00:08:46;19.40;38.60
3067;DHT22;1544;48.834;9.194;2023-10-13T00:11:22;19.40;38.60
3067;DHT22;1544;48.834;9.194;2023-10-13T00:13:58;19.30;38.50
3067;DHT22;1544;48.834;9.194;2023-10-13T00:16:34;19.30;38.50
3067;DHT22;1544;48.834;9.194;2023-10-13T00:19:12;19.30;38.60
3067;DHT22;1544;48.834;9.194;2023-10-13T00:21:49;19.30;38.60
3067;DHT22;1544;48.834;9.194;2023-10-13T00:24:25;19.20;38.60
3067;DHT22;1544;48.834;9.194;2023-10-13T00:27:05;19.20;38.60
3067;DHT22;1544;48.834;9.194;2023-10-13T00:29:41;19.10;38.60
3067;DHT22;1544;48.834;9.194;2023-10-13T00:32:19;19.00;38.70
3067;DHT22;1544;48.834;9.194;2023-10-13T00:35:03;18.90;38.80
3067;DHT22;1544;48.834;9.194;2023-10-13T00:37:40;18.90;39.00
3067;DHT22;1544;48.834;9.194;2023-10-13T00:40:22;18.80;39.00
3067;DHT22;1544;48.834;9.194;2023-10-13T00:43:05;18.70;39.10
3067;DHT22;1544;48.834;9.194;2023-10-13T00:45:57;18.70;39.30
3067;DHT22;1544;48.834;9.194;2023-10-13T00:48:44;18.60;39.30
3067;DHT22;1544;48.834;9.194;2023-10-13T00:51:30;18.60;39.50
3067;DHT22;1544;48.834;9.194;2023-10-13T00:54:17;18.50;39.50
3067;DHT22;1544;48.834;9.194;2023-10-13T00:56:55;18.50;39.60
3067;DHT22;1544;48.834;9.194;2023-10-13T00:59:40;18.40;39.60
3067;DHT22;1544;48.834;9.194;2023-10-13T01:02:21;18.40;39.70
3067;DHT22;1544;48.834;9.194;2023-10-13T01:05:13;18.30;39.70
3067;DHT22;1544;48.834;9.194;2023-10-13T01:07:55;18.30;39.80
3067;DHT22;1544;48.834;9.194;2023-10-13T01:10:32;18.30;39.90
3067;DHT22;1544;48.834;9.194;2023-10-13T01:13:08;18.20;39.90
3067;DHT22;1544;48.834;9.194;2023-10-13T01:15:44;18.20;40.00
3067;DHT22;1544;48.834;9.194;2023-10-13T01:18:22;18.20;40.10
3067;DHT22;1544;48.834;9.194;2023-10-13T01:20:58;18.20;40.20
3067;DHT22;1544;48.834;9.194;2023-10-13T01:23:35;18.10;40.20
3067;DHT22;1544;48.834;9.194;2023-10-13T01:26:14;18.10;40.40
3067;DHT22;1544;48.834;9.194;2023-10-13T01:28:59;18.00;40.30
3067;DHT22;1544;48.834;9.194;2023-10-13T01:31:35;18.00;40.40
3067;DHT22;1544;48.834;9.194;2023-10-13T01:34:18;18.00;40.40
3067;DHT22;1544;48.834;9.194;2023-10-13T01:37:00;17.90;40.30
3067;DHT22;1544;48.834;9.194;2023-10-13T01:39:42;17.90;40.30
3067;DHT22;1544;48.834;9.194;2023-10-13T01:42:18;17.90;40.40
3067;DHT22;1544;48.834;9.194;2023-10-13T01:44:58;17.80;40.30
3067;DHT22;1544;48.834;9.194;2023-10-13T01:47:41;17.80;40.30
3067;DHT22;1544;48.834;9.194;2023-10-13T01:50:22;17.70;40.30
3067;DHT22;1544;48.834;9.194;2023-10-13T01:53:05;17.70;40.20
3067;DHT22;1544;48.834;9.194;2023-10-13T01:55:58;17.60;40.10
3067;DHT22;1544;48.834;9.194;2023-10-13T01:58:34;17.60;40.30
3067;DHT22;1544;48.834;9.194;2023-10-13T02:01:10;17.50;40.30
3067;DHT22;1544;48.834;9.194;2023-10-13T02:03:47;17.50;40.30
3067;DHT22;1544;48.834;9.194;2023-10-13T02:06:24;17.40;40.20
3067;DHT22;1544;48.834;9.194;2023-10-13T02:09:05;17.40;40.10
3067;DHT22;1544;48.834;9.194;2023-10-13T02:12:00;17.40;40.10
3067;DHT22;1544;48.834;9.194;2023-10-13T02:14:36;17.40;40.10
3067;DHT22;1544;48.834;9.194;2023-10-13T02:17:13;17.30;40.00
3067;DHT22;1544;48.834;9.194;2023-10-13T02:19:51;17.30;40.10
3067;DHT22;1544;48.834;9.194;2023-10-13T02:22:30;17.20;39.90
3067;DHT22;1544;48.834;9.194;2023-10-13T02:25:07;17.20;39.90
3067;DHT22;1544;48.834;9.194;2023-10-13T02:27:54;17.20;39.90
3067;DHT22;1544;48.834;9.194;2023-10-13T02:30:41;17.10;39.80
3067;DHT22;1544;48.834;9.194;2023-10-13T02:33:20;17.10;39.80
3067;DHT22;1544;48.834;9.194;2023-10-13T02:35:58;17.10;39.80
3067;DHT22;1544;48.834;9.194;2023-10-13T02:38:39;17.00;39.70
3067;DHT22;1544;48.834;9.194;2023-10-13T02:41:19;17.00;39.60
3067;DHT22;1544;48.834;9.194;2023-10-13T02:44:04;17.00;39.60
3067;DHT22;1544;48.834;9.194;2023-10-13T02:46:46;16.90;39.40
3067;DHT22;1544;48.834;9.194;2023-10-13T02:49:27;16.90;39.40
3067;DHT22;1544;48.834;9.194;2023-10-13T02:52:07;16.90;39.30
3067;DHT22;1544;48.834;9.194;2023-10-13T02:54:44;16.80;39.30
3067;DHT22;1544;48.834;9.194;2023-10-13T02:57:26;16.80;39.30
3067;DHT22;1544;48.834;9.194;2023-10-13T03:00:02;16.80;39.40
3067;DHT22;1544;48.834;9.194;2023-10-13T03:02:48;16.70;39.40
3067;DHT22;1544;48.834;9.194;2023-10-13T03:05:35;16.70;39.40
3067;DHT22;1544;48.834;9.194;2023-10-13T03:08:14;16.70;39.40
3067;DHT22;1544;48.834;9.194;2023-10-13T03:11:01;16.70;39.40
3067;DHT22;1544;48.834;9.194;2023-10-13T03:13:41;16.60;39.30
3067;DHT22;1544;48.834;9.194;2023-10-13T03:16:20;16.60;39.30
3067;DHT22;1544;48.834;9.194;2023-10-13T03:18:56;16.60;39.30
3067;DHT22;1544;48.834;9.194;2023-10-13T03:21:32;16.50;39.20
3067;DHT22;1544;48.834;9.194;2023-10-13T03:24:13;16.50;39.20
3067;DHT22;1544;48.834;9.194;2023-10-13T03:26:49;16.50;39.10
3067;DHT22;1544;48.834;9.194;2023-10-13T03:29:28;16.50;39.10
3067;DHT22;1544;48.834;9.194;2023-10-13T03:32:06;16.50;39.10
3067;DHT22;1544;48.834;9.194;2023-10-13T03:34:44;16.40;39.10
3067;DHT22;1544;48.834;9.194;2023-10-13T03:37:36;16.40;39.20
3067;DHT22;1544;48.834;9.194;2023-10-13T03:40:15;16.40;39.10
3067;DHT22;1544;48.834;9.194;2023-10-13T03:43:10;16.30;39.10
3067;DHT22;1544;48.834;9.194;2023-10-13T03:45:49;16.30;39.10
3067;DHT22;1544;48.834;9.194;2023-10-13T03:48:36;16.30;39.10
3067;DHT22;1544;48.834;9.194;2023-10-13T03:51:27;16.30;39.00
3067;DHT22;1544;48.834;9.194;2023-10-13T03:54:07;16.20;38.90
3067;DHT22;1544;48.834;9.194;2023-10-13T03:56:44;16.20;38.80
3067;DHT22;1544;48.834;9.194;2023-10-13T03:59:20;16.20;38.80
3067;DHT22;1544;48.834;9.194;2023-10-13T04:01:56;16.20;38.90
3067;DHT22;1544;48.834;9.194;2023-10-13T04:04:36;16.10;38.80
3067;DHT22;1544;48.834;9.194;2023-10-13T04:07:25;16.10;38.90
3067;DHT22;1544;48.834;9.194;2023-10-13T04:10:01;16.10;39.00
3067;DHT22;1544;48.834;9.194;2023-10-13T04:12:58;16.00;38.90
3067;DHT22;1544;48.834;9.194;2023-10-13T04:15:53;16.00;39.00
3067;DHT22;1544;48.834;9.194;2023-10-13T04:18:51;15.90;39.00
3067;DHT22;1544;48.834;9.194;2023-10-13T04:21:30;15.90;39.10
3067;DHT22;1544;48.834;9.194;2023-10-13T04:24:14;15.80;39.10
3067;DHT22;1544;48.834;9.194;2023-10-13T04:26:53;15.80;39.10
3067;DHT22;1544;48.834;9.194;2023-10-13T04:29:55;15.80;39.20
3067;DHT22;1544;48.834;9.194;2023-10-13T04:32:37;15.80;39.30
3067;DHT22;1544;48.834;9.194;2023-10-13T04:35:22;15.80;39.30
3067;DHT22;1544;48.834;9.194;2023-10-13T04:38:01;15.80;39.30
3067;DHT22;1544;48.834;9.194;2023-10-13T04:40:41;15.80;39.20
3067;DHT22;1544;48.834;9.194;2023-10-13T04:43:34;15.80;39.10
3067;DHT22;1544;48.834;9.194;2023-10-13T04:46:30;15.70;38.80
3067;DHT22;1544;48.834;9.194;2023-10-13T04:49:22;15.80;38.80
3067;DHT22;1544;48.834;9.194;2023-10-13T04:52:05;15.80;38.60
3067;DHT22;1544;48.834;9.194;2023-10-13T04:54:45;15.80;38.50
3067;DHT22;1544;48.834;9.194;2023-10-13T04:57:24;15.80;38.30
3067;DHT22;1544;48.834;9.194;2023-10-13T05:00:11;15.80;38.20
3067;DHT22;1544;48.834;9.194;2023-10-13T05:02:48;15.80;38.00
3067;DHT22;1544;48.834;9.194;2023-10-13T05:05:35;15.80;38.00
3067;DHT22;1544;48.834;9.194;2023-10-13T05:08:40;15.90;38.00
3067;DHT22;1544;48.834;9.194;2023-10-13T05:11:35;15.90;37.80
3067;DHT22;1544;48.834;9.194;2023-10-13T05:14:29;15.90;37.60
3067;DHT22;1544;48.834;9.194;2023-10-13T05:17:24;15.90;37.50
3067;DHT22;1544;48.834;9.194;2023-10-13T05:20:19;16.00;37.40
3067;DHT22;1544;48.834;9.194;2023-10-13T05:23:13;16.00;37.00
3067;DHT22;1544;48.834;9.194;2023-10-13T05:26:08;16.10;36.90
3067;DHT22;1544;48.834;9.194;2023-10-13T05:29:02;16.10;36.60
3067;DHT22;1544;48.834;9.194;2023-10-13T05:32:04;16.20;36.50
3067;DHT22;1544;48.834;9.194;2023-10-13T05:34:59;16.20;36.40
3067;DHT22;1544;48.834;9.194;2023-10-13T05:37:53;16.30;36.40
3067;DHT22;1544;48.834;9.194;2023-10-13T05:43:57;16.40;36.10
3067;DHT22;1544;48.834;9.194;2023-10-13T05:46:51;16.40;36.10
3067;DHT22;1544;48.834;9.194;2023-10-13T05:49:46;16.40;36.10
3067;DHT22;1544;48.834;9.194;2023-10-13T05:52:46;16.50;36.10
3067;DHT22;1544;48.834;9.194;2023-10-13T05:55:32;16.50;36.00
3067;DHT22;1544;48.834;9.194;2023-10-13T05:58:26;16.50;36.10
3067;DHT22;1544;48.834;9.194;2023-10-13T06:01:21;16.60;36.20
3067;DHT22;1544;48.834;9.194;2023-10-13T06:04:15;16.60;36.20
3067;DHT22;1544;48.834;9.194;2023-10-13T06:07:10;16.60;36.30
3067;DHT22;1544;48.834;9.194;2023-10-13T06:10:05;16.60;36.30
3067;DHT22;1544;48.834;9.194;2023-10-13T06:13:04;16.70;36.50
3067;DHT22;1544;48.834;9.194;2023-10-13T06:15:58;16.70;36.50
3067;DHT22;1544;48.834;9.194;2023-10-13T06:18:53;16.80;36.60
3067;DHT22;1544;48.834;9.194;2023-10-13T06:21:48;16.80;36.60
3067;DHT22;1544;48.834;9.194;2023-10-13T06:24:42;16.90;36.60
3067;DHT22;1544;48.834;9.194;2023-10-13T06:27:37;16.90;36.60
3067;DHT22;1544;48.834;9.194;2023-10-13T06:30:31;17.00;36.60
3067;DHT22;1544;48.834;9.194;2023-10-13T06:33:08;17.10;36.70
3067;DHT22;1544;48.834;9.194;2023-10-13T06:35:50;17.10;36.60
3067;DHT22;1544;48.834;9.194;2023-10-13T06:38:26;17.20;36.60
3067;DHT22;1544;48.834;9.194;2023-10-13T06:41:07;17.30;36.60
3067;DHT22;1544;48.834;9.194;2023-10-13T06:43:43;17.30;36.50
3067;DHT22;1544;48.834;9.194;2023-10-13T06:46:19;17.40;36.50
3067;DHT22;1544;48.834;9.194;2023-10-13T06:48:59;17.50;36.50
3067;DHT22;1544;48.834;9.194;2023-10-13T06:51:36;17.50;36.30
3067;DHT22;1544;48.834;9.194;2023-10-13T06:54:14;17.50;36.30
3067;DHT22;1544;48.834;9.194;2023-10-13T06:56:56;17.60;36.30
3067;DHT22;1544;48.834;9.194;2023-10-13T06:59:33;17.60;36.30
3067;DHT22;1544;48.834;9.194;2023-10-13T07:02:12;17.50;36.10
3067;DHT22;1544;48.834;9.194;2023-10-13T07:05:03;17.50;36.10
3067;DHT22;1544;48.834;9.194;2023-10-13T07:07:44;17.60;36.30
3067;DHT22;1544;48.834;9.194;2023-10-13T07:10:20;17.60;36.30
3067;DHT22;1544;48.834;9.194;2023-10-13T07:13:05;17.60;36.20
3067;DHT22;1544;48.834;9.194;2023-10-13T07:15:43;17.60;36.20
3067;DHT22;1544;48.834;9.194;2023-10-13T07:18:23;17.60;36.30
3067;DHT22;1544;48.834;9.194;2023-10-13T07:20:59;17.60;36.30
3067;DHT22;1544;48.834;9.194;2023-10-13T07:23:43;17.60;36.30
3067;DHT22;1544;48.834;9.194;2023-10-13T07:26:36;17.70;36.40
3067;DHT22;1544;48.834;9.194;2023-10-13T07:29:21;17.70;36.40
3067;DHT22;1544;48.834;9.194;2023-10-13T07:32:00;17.70;36.40
3067;DHT22;1544;48.834;9.194;2023-10-13T07:34:41;17.70;36.50
3067;DHT22;1544;48.834;9.194;2023-10-13T07:37:17;17.80;36.60
3067;DHT22;1544;48.834;9.194;2023-10-13T07:39:55;17.80;36.60
3067;DHT22;1544;48.834;9.194;2023-10-13T07:42:36;17.90;36.70
3067;DHT22;1544;48.834;9.194;2023-10-13T07:45:15;17.90;36.60
3067;DHT22;1544;48.834;9.194;2023-10-13T07:48:10;18.00;36.70
3067;DHT22;1544;48.834;9.194;2023-10-13T07:51:01;18.10;36.70
3067;DHT22;1544;48.834;9.194;2023-10-13T07:53:40;18.10;36.60
3067;DHT22;1544;48.834;9.194;2023-10-13T07:56:16;18.20;36.60
3067;DHT22;1544;48.834;9.194;2023-10-13T07:58:55;18.30;36.60
3067;DHT22;1544;48.834;9.194;2023-10-13T08:01:39;18.40;36.40
3067;DHT22;1544;48.834;9.194;2023-10-13T08:04:18;18.50;36.30
3067;DHT22;1544;48.834;9.194;2023-10-13T08:07:04;18.60;36.10
3067;DHT22;1544;48.834;9.194;2023-10-13T08:09:49;18.60;35.80
3067;DHT22;1544;48.834;9.194;2023-10-13T08:12:27;18.70;35.60
3067;DHT22;1544;48.834;9.194;2023-10-13T08:15:04;18.80;35.30
3067;DHT22;1544;48.834;9.194;2023-10-13T08:18:00;18.90;35.00
3067;DHT22;1544;48.834;9.194;2023-10-13T08:20:41;19.00;34.70
3067;DHT22;1544;48.834;9.194;2023-10-13T08:23:17;19.10;34.50
3067;DHT22;1544;48.834;9.194;2023-10-13T08:26:10;19.20;34.20
3067;DHT22;1544;48.834;9.194;2023-10-13T08:29:05;19.30;34.00
3067;DHT22;1544;48.834;9.194;2023-10-13T08:31:59;19.50;33.80
3067;DHT22;1544;48.834;9.194;2023-10-13T08:34:56;19.60;33.60
3067;DHT22;1544;48.834;9.194;2023-10-13T08:37:32;19.70;33.40
3067;DHT22;1544;48.834;9.194;2023-10-13T08:40:27;19.80;33.00
3067;DHT22;1544;48.834;9.194;2023-10-13T08:43:22;19.90;33.00
3067;DHT22;1544;48.834;9.194;2023-10-13T08:45:59;20.10;33.00
3067;DHT22;1544;48.834;9.194;2023-10-13T08:48:41;20.20;33.00
3067;DHT22;1544;48.834;9.194;2023-10-13T08:51:23;20.30;32.70
3067;DHT22;1544;48.834;9.194;2023-10-13T08:54:19;20.40;32.70
3067;DHT22;1544;48.834;9.194;2023-10-13T08:57:08;20.50;32.70
3067;DHT22;1544;48.834;9.194;2023-10-13T09:00:03;20.70;32.80
3067;DHT22;1544;48.834;9.194;2023-10-13T09:02:58;20.80;32.70
3067;DHT22;1544;48.834;9.194;2023-10-13T09:06:13;20.90;32.50
3067;DHT22;1544;48.834;9.194;2023-10-13T09:09:06;21.00;32.30
3067;DHT22;1544;48.834;9.194;2023-10-13T09:11:43;21.10;32.30
3067;DHT22;1544;48.834;9.194;2023-10-13T09:14:25;21.20;32.20
3067;DHT22;1544;48.834;9.194;2023-10-13T09:17:12;21.30;32.10
3067;DHT22;1544;48.834;9.194;2023-10-13T09:20:09;21.40;31.90
3067;DHT22;1544;48.834;9.194;2023-10-13T09:22:58;21.50;31.70
3067;DHT22;1544;48.834;9.194;2023-10-13T09:25:38;21.60;31.40
3067;DHT22;1544;48.834;9.194;2023-10-13T09:28:34;21.80;31.50
3067;DHT22;1544;48.834;9.194;2023-10-13T09:31:12;21.90;31.50
3067;DHT22;1544;48.834;9.194;2023-10-13T09:34:02;22.10;31.50
3067;DHT22;1544;48.834;9.194;2023-10-13T09:36:38;22.10;31.30
3067;DHT22;1544;48.834;9.194;2023-10-13T09:39:14;22.30;31.20
3067;DHT22;1544;48.834;9.194;2023-10-13T09:42:05;22.30;30.20
3067;DHT22;1544;48.834;9.194;2023-10-13T09:44:46;22.50;29.60
3067;DHT22;1544;48.834;9.194;2023-10-13T09:47:28;22.70;29.00
3067;DHT22;1544;48.834;9.194;2023-10-13T09:50:14;22.80;29.20
3067;DHT22;1544;48.834;9.194;2023-10-13T09:53:00;23.00;29.10
3067;DHT22;1544;48.834;9.194;2023-10-13T09:55:46;23.10;28.20
3067;DHT22;1544;48.834;9.194;2023-10-13T09:58:24;23.20;28.10
3067;DHT22;1544;48.834;9.194;2023-10-13T10:01:08;23.40;28.10
3067;DHT22;1544;48.834;9.194;2023-10-13T10:03:45;23.50;28.00
3067;DHT22;1544;48.834;9.194;2023-10-13T10:06:55;23.70;27.80
3067;DHT22;1544;48.834;9.194;2023-10-13T10:09:34;23.90;27.80
3067;DHT22;1544;48.834;9.194;2023-10-13T10:18:23;24.30;27.40
3067;DHT22;1544;48.834;9.194;2023-10-13T10:21:04;24.50;27.30
3067;DHT22;1544;48.834;9.194;2023-10-13T10:23:52;24.70;27.30
3067;DHT22;1544;48.834;9.194;2023-10-13T10:26:29;24.90;27.20
3067;DHT22;1544;48.834;9.194;2023-10-13T10:29:11;25.00;27.10
3067;DHT22;1544;48.834;9.194;2023-10-13T10:31:49;25.10;27.00
3067;DHT22;1544;48.834;9.194;2023-10-13T10:34:30;25.20;26.90
3067;DHT22;1544;48.834;9.194;2023-10-13T10:37:08;25.30;26.80
3067;DHT22;1544;48.834;9.194;2023-10-13T10:39:45;25.40;26.80
3067;DHT22;1544;48.834;9.194;2023-10-13T10:42:22;25.40;26.80
3067;DHT22;1544;48.834;9.194;2023-10-13T10:44:59;25.40;26.60
3067;DHT22;1544;48.834;9.194;2023-10-13T10:47:49;25.50;26.70
3067;DHT22;1544;48.834;9.194;2023-10-13T10:50:27;25.50;26.80
3067;DHT22;1544;48.834;9.194;2023-10-13T10:53:12;25.50;26.60
3067;DHT22;1544;48.834;9.194;2023-10-13T10:55:49;25.50;26.50
3067;DHT22;1544;48.834;9.194;2023-10-13T10:58:25;25.60;26.60
3067;DHT22;1544;48.834;9.194;2023-10-13T11:01:06;25.70;26.50
3067;DHT22;1544;48.834;9.194;2023-10-13T11:06:35;26.00;26.40
3067;DHT22;1544;48.834;9.194;2023-10-13T11:09:41;26.10;26.40
3067;DHT22;1544;48.834;9.194;2023-10-13T11:12:20;26.20;26.30
3067;DHT22;1544;48.834;9.194;2023-10-13T11:15:04;26.30;26.20
3067;DHT22;1544;48.834;9.194;2023-10-13T11:17:59;26.40;26.20
3067;DHT22;1544;48.834;9.194;2023-10-13T11:20:41;26.50;26.40
3067;DHT22;1544;48.834;9.194;2023-10-13T11:23:21;26.60;26.00
3067;DHT22;1544;48.834;9.194;2023-10-13T11:26:01;26.80;26.00
3067;DHT22;1544;48.834;9.194;2023-10-13T11:28:37;27.00;26.10
3067;DHT22;1544;48.834;9.194;2023-10-13T11:31:14;27.20;25.90
3067;DHT22;1544;48.834;9.194;2023-10-13T11:33:55;27.40;25.80
3067;DHT22;1544;48.834;9.194;2023-10-13T11:36:32;27.60;25.70
3067;DHT22;1544;48.834;9.194;2023-10-13T11:39:09;27.80;25.80
3067;DHT22;1544;48.834;9.194;2023-10-13T11:41:45;28.00;25.40
3067;DHT22;1544;48.834;9.194;2023-10-13T11:44:26;28.20;25.30
3067;DHT22;1544;48.834;9.194;2023-10-13T11:47:06;28.40;25.10
3067;DHT22;1544;48.834;9.194;2023-10-13T11:50:05;28.60;24.80
3067;DHT22;1544;48.834;9.194;2023-10-13T11:52:41;28.70;24.70
3067;DHT22;1544;48.834;9.194;2023-10-13T11:55:18;28.80;24.40
3067;DHT22;1544;48.834;9.194;2023-10-13T11:57:54;28.90;24.50
3067;DHT22;1544;48.834;9.194;2023-10-13T12:00:35;29.10;24.70
3067;DHT22;1544;48.834;9.194;2023-10-13T12:03:44;29.30;24.60
3067;DHT22;1544;48.834;9.194;2023-10-13T12:06:39;29.50;24.30
3067;DHT22;1544;48.834;9.194;2023-10-13T12:09:15;29.70;24.30
3067;DHT22;1544;48.834;9.194;2023-10-13T12:11:51;29.80;24.30
3067;DHT22;1544;48.834;9.194;2023-10-13T12:14:30;30.10;24.20
3067;DHT22;1544;48.834;9.194;2023-10-13T12:17:13;30.30;23.80
3067;DHT22;1544;48.834;9.194;2023-10-13T12:20:00;30.40;23.90
3067;DHT22;1544;48.834;9.194;2023-10-13T12:22:41;30.50;23.80
3067;DHT22;1544;48.834;9.194;2023-10-13T12:25:27;30.70;23.80
3067;DHT22;1544;48.834;9.194;2023-10-13T12:28:09;30.90;24.00
3067;DHT22;1544;48.834;9.194;2023-10-13T12:30:55;31.10;23.90
3067;DHT22;1544;48.834;9.194;2023-10-13T12:33:33;31.30;23.70
3067;DHT22;1544;48.834;9.194;2023-10-13T12:36:18;31.40;23.70
3067;DHT22;1544;48.834;9.194;2023-10-13T12:38:56;31.50;23.60
3067;DHT22;1544;48.834;9.194;2023-10-13T12:41:44;31.60;23.50
3067;DHT22;1544;48.834;9.194;2023-10-13T12:44:39;31.70;23.60
3067;DHT22;1544;48.834;9.194;2023-10-13T12:47:33;32.00;23.80
3067;DHT22;1544;48.834;9.194;2023-10-13T12:50:30;32.10;23.40
3067;DHT22;1544;48.834;9.194;2023-10-13T12:53:20;32.30;23.60
3067;DHT22;1544;48.834;9.194;2023-10-13T12:55:55;32.50;23.50
3067;DHT22;1544;48.834;9.194;2023-10-13T12:58:31;32.70;23.50
3067;DHT22;1544;48.834;9.194;2023-10-13T13:01:08;32.90;23.20
3067;DHT22;1544;48.834;9.194;2023-10-13T13:03:44;32.90;23.10
3067;DHT22;1544;48.834;9.194;2023-10-13T13:06:21;33.00;23.10
3067;DHT22;1544;48.834;9.194;2023-10-13T13:09:02;33.10;23.20
3067;DHT22;1544;48.834;9.194;2023-10-13T13:11:38;33.30;23.30
3067;DHT22;1544;48.834;9.194;2023-10-13T13:14:15;33.60;23.30
3067;DHT22;1544;48.834;9.194;2023-10-13T13:16:51;33.80;23.00
3067;DHT22;1544;48.834;9.194;2023-10-13T13:19:27;33.90;22.80
3067;DHT22;1544;48.834;9.194;2023-10-13T13:22:03;34.00;22.90
3067;DHT22;1544;48.834;9.194;2023-10-13T13:24:43;34.20;23.10
3067;DHT22;1544;48.834;9.194;2023-10-13T13:27:20;34.40;22.80
3067;DHT22;1544;48.834;9.194;2023-10-13T13:29:58;34.50;22.50
3067;DHT22;1544;48.834;9.194;2023-10-13T13:32:34;34.40;22.10
3067;DHT22;1544;48.834;9.194;2023-10-13T13:35:13;34.20;21.90
3067;DHT22;1544;48.834;9.194;2023-10-13T13:37:51;34.10;22.00
3067;DHT22;1544;48.834;9.194;2023-10-13T13:40:27;33.90;22.20
3067;DHT22;1544;48.834;9.194;2023-10-13T13:43:10;33.70;22.20
3067;DHT22;1544;48.834;9.194;2023-10-13T13:45:54;33.80;22.00
3067;DHT22;1544;48.834;9.194;2023-10-13T13:48:37;33.90;21.90
3067;DHT22;1544;48.834;9.194;2023-10-13T13:51:13;34.00;21.90
3067;DHT22;1544;48.834;9.194;2023-10-13T13:54:02;33.90;22.10
3067;DHT22;1544;48.834;9.194;2023-10-13T13:56:42;33.90;22.10
3067;DHT22;1544;48.834;9.194;2023-10-13T13:59:18;34.00;22.00
3067;DHT22;1544;48.834;9.194;2023-10-13T14:01:55;34.10;22.00
3067;DHT22;1544;48.834;9.194;2023-10-13T14:04:35;34.20;22.20
3067;DHT22;1544;48.834;9.194;2023-10-13T14:07:12;34.30;22.10
3067;DHT22;1544;48.834;9.194;2023-10-13T14:09:50;34.40;21.90
3067;DHT22;1544;48.834;9.194;2023-10-13T14:12:41;34.40;21.80
3067;DHT22;1544;48.834;9.194;2023-10-13T14:15:17;34.50;21.90
3067;DHT22;1544;48.834;9.194;2023-10-13T14:17:59;34.50;21.80
3067;DHT22;1544;48.834;9.194;2023-10-13T14:20:41;34.50;21.60
3067;DHT22;1544;48.834;9.194;2023-10-13T14:23:17;34.50;21.70
3067;DHT22;1544;48.834;9.194;2023-10-13T14:25:58;34.60;21.80
3067;DHT22;1544;48.834;9.194;2023-10-13T14:28:34;34.60;21.80
3067;DHT22;1544;48.834;9.194;2023-10-13T14:31:10;34.70;21.70
3067;DHT22;1544;48.834;9.194;2023-10-13T14:33:49;34.70;21.90
3067;DHT22;1544;48.834;9.194;2023-10-13T14:36:25;34.80;21.80
3067;DHT22;1544;48.834;9.194;2023-10-13T14:39:05;34.90;21.90
3067;DHT22;1544;48.834;9.194;2023-10-13T14:41:45;34.90;21.80
3067;DHT22;1544;48.834;9.194;2023-10-13T14:44:23;34.80;21.60
3067;DHT22;1544;48.834;9.194;2023-10-13T14:47:02;34.70;21.50
3067;DHT22;1544;48.834;9.194;2023-10-13T14:49:41;34.60;21.70
3067;DHT22;1544;48.834;9.194;2023-10-13T14:52:17;34.50;21.90
3067;DHT22;1544;48.834;9.194;2023-10-13T14:54:53;34.30;21.40
3067;DHT22;1544;48.834;9.194;2023-10-13T14:57:33;34.20;21.60
3067;DHT22;1544;48.834;9.194;2023-10-13T15:00:13;34.10;21.60
3067;DHT22;1544;48.834;9.194;2023-10-13T15:02:53;34.00;21.40
3067;DHT22;1544;48.834;9.194;2023-10-13T15:05:31;34.00;21.60
3067;DHT22;1544;48.834;9.194;2023-10-13T15:08:09;34.00;21.50
3067;DHT22;1544;48.834;9.194;2023-10-13T15:10:45;33.90;21.40
3067;DHT22;1544;48.834;9.194;2023-10-13T15:13:21;33.80;21.30
3067;DHT22;1544;48.834;9.194;2023-10-13T15:15:58;33.70;21.20
3067;DHT22;1544;48.834;9.194;2023-10-13T15:18:34;33.60;21.40
3067;DHT22;1544;48.834;9.194;2023-10-13T15:21:10;33.50;21.00
3067;DHT22;1544;48.834;9.194;2023-10-13T15:23:46;33.30;21.10
3067;DHT22;1544;48.834;9.194;2023-10-13T15:26:22;33.20;21.20
3067;DHT22;1544;48.834;9.194;2023-10-13T15:28:59;33.10;21.20
3067;DHT22;1544;48.834;9.194;2023-10-13T15:31:36;32.90;21.20
3067;DHT22;1544;48.834;9.194;2023-10-13T15:34:17;32.80;21.20
3067;DHT22;1544;48.834;9.194;2023-10-13T15:36:54;32.70;21.30
3067;DHT22;1544;48.834;9.194;2023-10-13T15:39:31;32.70;21.30
3067;DHT22;1544;48.834;9.194;2023-10-13T15:42:07;32.60;21.40
3067;DHT22;1544;48.834;9.194;2023-10-13T15:44:45;32.30;21.30
3067;DHT22;1544;48.834;9.194;2023-10-13T15:47:21;32.10;21.50
3067;DHT22;1544;48.834;9.194;2023-10-13T15:50:17;32.00;21.40
3067;DHT22;1544;48.834;9.194;2023-10-13T15:52:57;31.70;21.10
3067;DHT22;1544;48.834;9.194;2023-10-13T15:55:36;31.40;21.30
3067;DHT22;1544;48.834;9.194;2023-10-13T15:58:13;31.20;21.20
3067;DHT22;1544;48.834;9.194;2023-10-13T16:00:53;31.00;21.40
3067;DHT22;1544;48.834;9.194;2023-10-13T16:03:31;30.80;21.30
3067;DHT22;1544;48.834;9.194;2023-10-13T16:06:08;30.50;21.30
3067;DHT22;1544;48.834;9.194;2023-10-13T16:08:47;30.40;21.20
3067;DHT22;1544;48.834;9.194;2023-10-13T16:11:24;30.20;21.30
3067;DHT22;1544;48.834;9.194;2023-10-13T16:14:00;30.00;21.30
3067;DHT22;1544;48.834;9.194;2023-10-13T16:16:37;29.80;21.30
3067;DHT22;1544;48.834;9.194;2023-10-13T16:19:17;29.60;21.40
3067;DHT22;1544;48.834;9.194;2023-10-13T16:21:57;29.50;21.50
3067;DHT22;1544;48.834;9.194;2023-10-13T16:24:33;29.30;21.40
3067;DHT22;1544;48.834;9.194;2023-10-13T16:27:09;29.20;21.40
3067;DHT22;1544;48.834;9.194;2023-10-13T16:29:49;29.00;21.40
3067;DHT22;1544;48.834;9.194;2023-10-13T16:32:26;28.90;21.50
3067;DHT22;1544;48.834;9.194;2023-10-13T16:35:06;28.70;21.50
3067;DHT22;1544;48.834;9.194;2023-10-13T16:37:44;28.60;21.50
3067;DHT22;1544;48.834;9.194;2023-10-13T16:40:21;28.50;21.60
3067;DHT22;1544;48.834;9.194;2023-10-13T16:42:57;28.40;21.80
3067;DHT22;1544;48.834;9.194;2023-10-13T16:45:36;28.30;21.80
3067;DHT22;1544;48.834;9.194;2023-10-13T16:48:13;28.20;21.70
3067;DHT22;1544;48.834;9.194;2023-10-13T16:50:49;28.00;21.70
3067;DHT22;1544;48.834;9.194;2023-10-13T16:53:26;27.90;21.80
3067;DHT22;1544;48.834;9.194;2023-10-13T16:56:03;27.80;21.80
3067;DHT22;1544;48.834;9.194;2023-10-13T16:58:39;27.70;21.90
3067;DHT22;1544;48.834;9.194;2023-10-13T17:01:15;27.50;21.90
3067;DHT22;1544;48.834;9.194;2023-10-13T17:03:53;27.50;22.10
3067;DHT22;1544;48.834;9.194;2023-10-13T17:06:29;27.40;22.00
3067;DHT22;1544;48.834;9.194;2023-10-13T17:09:05;27.30;22.10
3067;DHT22;1544;48.834;9.194;2023-10-13T17:11:47;27.20;22.20
3067;DHT22;1544;48.834;9.194;2023-10-13T17:14:23;27.10;22.20
3067;DHT22;1544;48.834;9.194;2023-10-13T17:16:59;27.10;22.30
3067;DHT22;1544;48.834;9.194;2023-10-13T17:19:36;27.00;22.40
3067;DHT22;1544;48.834;9.194;2023-10-13T17:22:12;26.90;22.50
3067;DHT22;1544;48.834;9.194;2023-10-13T17:24:48;26.80;22.60
3067;DHT22;1544;48.834;9.194;2023-10-13T17:27:25;26.70;22.60
3067;DHT22;1544;48.834;9.194;2023-10-13T17:30:01;26.60;22.80
3067;DHT22;1544;48.834;9.194;2023-10-13T17:32:37;26.60;22.80
3067;DHT22;1544;48.834;9.194;2023-10-13T17:35:14;26.50;22.90
3067;DHT22;1544;48.834;9.194;2023-10-13T17:37:50;26.40;23.00
3067;DHT22;1544;48.834;9.194;2023-10-13T17:40:28;26.30;23.10
3067;DHT22;1544;48.834;9.194;2023-10-13T17:43:04;26.20;23.20
3067;DHT22;1544;48.834;9.194;2023-10-13T17:45:40;26.10;23.30
3067;DHT22;1544;48.834;9.194;2023-10-13T17:48:17;26.00;23.50
3067;DHT22;1544;48.834;9.194;2023-10-13T17:50:53;25.90;23.60